Storm Events Database

Event Details

Event Hail
Magnitude 1.75 in.
State MICHIGAN
County/Area VAN BUREN
WFO GRR
Report Source Public
NCDC Data Source CSV
Begin Date 2006-10-02 06:50:00.0 EST-5
Begin Location 1SE COVERT
Begin Lat/Lon 42.29/-86.26
End Date 2006-10-02 06:50:00.0 EST-5
Deaths Direct/Indirect 0/0 (fatality details below, when available...)
Injuries Direct/Indirect 0/0
Property Damage 20.00K
Crop Damage 20.00K
Episode Narrative A slow moving low pressure system and it's attendant cold front brought an early October severe weather episode with numerous reports of large hail and several reports of high winds with severe thunderstorms.
Event Narrative One and three quarters inch hail was reported in Covert.


     ‚Äč



All events for this episode:

Location County/Zone St. Date Time T.Z. Type Mag Dth Inj PrD CrD
Totals: 0 0 435.00K 310.00K
COVERT VAN BUREN CO. MI 10/02/2006 06:40 EST-5 Hail 1.00 in. 0 0 10.00K 10.00K
COVERT VAN BUREN CO. MI 10/02/2006 06:40 EST-5 Hail 1.00 in. 0 0 10.00K 10.00K
COVERT VAN BUREN CO. MI 10/02/2006 06:40 EST-5 Hail 1.00 in. 0 0 10.00K 10.00K
COVERT VAN BUREN CO. MI 10/02/2006 06:50 EST-5 Hail 1.75 in. 0 0 20.00K 20.00K
MUSKEGON MUSKEGON CO. MI 10/02/2006 10:50 EST-5 Hail 0.88 in. 0 0 10.00K 10.00K
WESTPHALIA CLINTON CO. MI 10/02/2006 13:45 EST-5 Hail 0.88 in. 0 0 10.00K 10.00K
BITELY NEWAYGO CO. MI 10/02/2006 17:20 EST-5 Hail 1.00 in. 0 0 10.00K 10.00K
VOLNEY NEWAYGO CO. MI 10/02/2006 17:55 EST-5 Hail 0.88 in. 0 0 10.00K 10.00K
FERRY OCEANA CO. MI 10/02/2006 18:10 EST-5 Hail 0.75 in. 0 0 10.00K 10.00K
WALKERVILLE OCEANA CO. MI 10/02/2006 18:10 EST-5 Hail 0.88 in. 0 0 10.00K 10.00K
WALKERVILLE OCEANA CO. MI 10/02/2006 18:20 EST-5 Hail 0.75 in. 0 0 10.00K 10.00K
MORLEY MECOSTA CO. MI 10/02/2006 18:30 EST-5 Hail 0.75 in. 0 0 10.00K 10.00K
NEWAYGO NEWAYGO CO. MI 10/02/2006 19:26 EST-5 Hail 1.00 in. 0 0 10.00K 10.00K
NEWAYGO NEWAYGO CO. MI 10/02/2006 19:33 EST-5 Hail 1.00 in. 0 0 10.00K 10.00K
GRANT NEWAYGO CO. MI 10/02/2006 19:37 EST-5 Hail 0.75 in. 0 0 10.00K 10.00K
SHELBY OCEANA CO. MI 10/02/2006 19:55 EST-5 Hail 0.88 in. 0 0 10.00K 10.00K
WALKERVILLE OCEANA CO. MI 10/03/2006 21:18 EST-5 Hail 0.75 in. 0 0 10.00K 10.00K
HAMLIN LAKE MASON CO. MI 10/03/2006 23:51 EST-5 Hail 0.75 in. 0 0 15.00K 15.00K
FREESOIL MASON CO. MI 10/04/2006 00:00 EST-5 Thunderstorm Wind 53 kts. EG 0 0 50.00K 10.00K
MILLERTON MASON CO. MI 10/04/2006 00:05 EST-5 Thunderstorm Wind 52 kts. EG 0 0 30.00K 10.00K
EVART MUNI ARPT OSCEOLA CO. MI 10/04/2006 00:35 EST-5 Thunderstorm Wind 52 kts. EG 0 0 25.00K 10.00K
WALKERVILLE OCEANA CO. MI 10/04/2006 00:38 EST-5 Hail 0.75 in. 0 0 10.00K 10.00K
WOODLAND PARK NEWAYGO CO. MI 10/04/2006 01:00 EST-5 Thunderstorm Wind 52 kts. EG 0 0 30.00K 10.00K
NORTON SHRS MUSKEGON CO. MI 10/04/2006 01:25 EST-5 Thunderstorm Wind 52 kts. EG 0 0 25.00K 10.00K
ROLLAND CENTER ISABELLA CO. MI 10/04/2006 01:30 EST-5 Thunderstorm Wind 52 kts. EG 0 0 25.00K 10.00K
ROLLAND CENTER ISABELLA CO. MI 10/04/2006 01:30 EST-5 Hail 1.50 in. 0 0 10.00K 10.00K
WYMAN MONTCALM CO. MI 10/04/2006 06:10 EST-5 Hail 0.75 in. 0 0 10.00K 10.00K
BRECKENRIDGE GRATIOT CO. MI 10/04/2006 06:15 EST-5 Hail 0.88 in. 0 0 10.00K 10.00K
SHEPHERD ISABELLA CO. MI 10/04/2006 06:15 EST-5 Hail 2.00 in. 0 0 15.00K 15.00K
Totals: 0 0 435.00K 310.00K